createdAt,value
2024-02-07T00:00:17.914Z,21.2822
2024-02-07T00:05:19.782Z,20.85815
2024-02-07T00:10:21.649Z,20.1945
2024-02-07T00:15:23.687Z,20.6808
2024-02-07T00:20:25.363Z,24.17695
2024-02-07T00:25:26.942Z,20.74005
2024-02-07T00:30:34.329Z,20.14745
2024-02-07T00:35:40.431Z,12.5033
2024-02-07T00:40:42.412Z,7.28865
2024-02-07T00:45:44.044Z,4.8591
2024-02-07T00:50:45.642Z,5.3852
2024-02-07T00:55:47.386Z,1.7152
2024-02-07T01:00:49.080Z,1.2444
2024-02-07T01:05:50.616Z,0.88885
2024-02-07T01:10:52.198Z,0.4148
2024-02-07T01:15:53.749Z,0
2024-02-07T01:20:55.237Z,0
2024-02-07T01:25:56.720Z,0
2024-02-07T01:30:58.262Z,0
2024-02-07T01:35:59.737Z,0
2024-02-07T01:41:01.352Z,0
2024-02-07T01:46:02.991Z,0
2024-02-07T01:51:15.455Z,0
2024-02-07T01:56:16.955Z,0
2024-02-07T02:01:18.566Z,0
2024-02-07T02:06:19.961Z,0
2024-02-07T02:11:21.502Z,0
2024-02-07T02:16:23.074Z,0
2024-02-07T02:21:24.574Z,0
2024-02-07T02:26:26.117Z,0
2024-02-07T02:31:27.658Z,0
2024-02-07T02:36:29.161Z,0
2024-02-07T02:41:30.859Z,0
2024-02-07T02:46:32.472Z,0
2024-02-07T02:51:34.060Z,0
2024-02-07T02:56:35.595Z,0
2024-02-07T03:01:37.209Z,0
2024-02-07T03:06:38.819Z,0
2024-02-07T03:11:40.394Z,0
2024-02-07T03:16:42.015Z,0
2024-02-07T03:21:43.553Z,0
2024-02-07T03:26:44.926Z,0
2024-02-07T03:31:46.627Z,0
2024-02-07T03:36:48.280Z,0
2024-02-07T03:41:49.715Z,0
2024-02-07T03:46:51.349Z,0
2024-02-07T03:51:52.940Z,0
2024-02-07T03:56:54.528Z,0
2024-02-07T04:01:56.201Z,0
2024-02-07T04:06:57.834Z,0
2024-02-07T04:11:59.337Z,0
2024-02-07T04:17:00.765Z,0
2024-02-07T04:22:02.251Z,0
2024-02-07T04:27:03.774Z,0
2024-02-07T04:32:05.289Z,0
2024-02-07T04:37:07.412Z,0
2024-02-07T04:42:19.710Z,0
2024-02-07T04:47:21.245Z,0
2024-02-07T04:52:22.802Z,0
2024-02-07T04:57:24.364Z,0
2024-02-07T05:02:25.904Z,0
2024-02-07T05:07:27.485Z,0
2024-02-07T05:12:28.991Z,0
2024-02-07T05:17:30.882Z,0
2024-02-07T05:22:32.649Z,0
2024-02-07T05:27:34.288Z,0
2024-02-07T05:32:35.835Z,0
2024-02-07T05:37:37.430Z,0
2024-02-07T05:42:39.226Z,0
2024-02-07T05:47:40.753Z,0
2024-02-07T05:52:42.287Z,0
2024-02-07T05:57:43.950Z,0
2024-02-07T06:02:45.513Z,0
2024-02-07T06:07:47.225Z,0
2024-02-07T06:12:48.905Z,0
2024-02-07T06:17:50.693Z,0
2024-02-07T06:23:03.271Z,0
2024-02-07T06:28:04.773Z,0
2024-02-07T06:33:06.485Z,0
2024-02-07T06:38:08.003Z,0
2024-02-07T06:43:09.645Z,0
2024-02-07T06:48:11.199Z,0
2024-02-07T06:53:14.330Z,0
2024-02-07T06:58:16.071Z,0
2024-02-07T07:03:17.538Z,0
2024-02-07T07:08:18.972Z,0
2024-02-07T07:13:20.655Z,0
2024-02-07T07:18:22.263Z,0
2024-02-07T07:23:23.976Z,0
2024-02-07T07:28:25.478Z,0
2024-02-07T07:33:27.589Z,0
2024-02-07T07:38:29.559Z,0
2024-02-07T07:43:31.308Z,0
2024-02-07T07:48:33.069Z,0
2024-02-07T07:53:34.838Z,0
2024-02-07T07:58:44.478Z,0
2024-02-07T08:03:50.576Z,0
2024-02-07T08:08:52.045Z,0
2024-02-07T08:13:53.660Z,0
2024-02-07T08:18:56.103Z,0
2024-02-07T08:23:58.014Z,0
2024-02-07T08:28:59.674Z,0
2024-02-07T08:34:01.369Z,0
2024-02-07T08:44:24.307Z,0
2024-02-07T08:49:25.804Z,0
2024-02-07T08:54:27.259Z,0
2024-02-07T08:59:29.565Z,0
2024-02-07T09:04:42.619Z,0
2024-02-07T09:09:44.514Z,0
2024-02-07T09:14:46.076Z,0
2024-02-07T09:19:47.587Z,0
2024-02-07T09:24:59.579Z,0
2024-02-07T09:30:08.011Z,0
2024-02-07T09:35:13.883Z,0
2024-02-07T09:40:15.647Z,0
2024-02-07T09:45:17.190Z,0
2024-02-07T09:50:18.997Z,0
2024-02-07T09:55:20.809Z,0
2024-02-07T10:00:22.466Z,0
2024-02-07T10:05:24.431Z,0
2024-02-07T10:10:26.045Z,0
2024-02-07T10:15:27.472Z,0
2024-02-07T10:20:28.856Z,0
2024-02-07T10:25:30.462Z,0
2024-02-07T10:30:32.278Z,0
2024-02-07T10:35:34.129Z,0
2024-02-07T10:40:47.157Z,0
2024-02-07T10:45:48.779Z,0
2024-02-07T10:50:50.439Z,0
2024-02-07T10:55:52.087Z,0
2024-02-07T11:00:53.656Z,0
2024-02-07T11:05:55.642Z,0
2024-02-07T11:10:57.455Z,0
2024-02-07T11:15:59.048Z,0
2024-02-07T11:21:00.500Z,0
2024-02-07T11:26:02.242Z,0
2024-02-07T11:31:03.923Z,0
2024-02-07T11:36:05.530Z,0
2024-02-07T11:41:07.356Z,0
2024-02-07T11:46:08.941Z,0
2024-02-07T11:51:10.519Z,0
2024-02-07T11:56:12.238Z,0
2024-02-07T12:01:14.391Z,0
2024-02-07T12:06:16.059Z,0
2024-02-07T12:11:17.743Z,0
2024-02-07T12:16:19.182Z,0
2024-02-07T12:21:23.435Z,0
2024-02-07T12:26:26.907Z,0
2024-02-07T12:31:28.387Z,0
2024-02-07T12:36:29.825Z,0
2024-02-07T12:41:31.414Z,0
2024-02-07T12:46:33.014Z,0
2024-02-07T12:51:34.729Z,0
2024-02-07T12:56:36.365Z,0
2024-02-07T13:01:37.885Z,0
2024-02-07T13:06:39.515Z,0
2024-02-07T13:11:41.020Z,0
2024-02-07T13:16:42.994Z,0
2024-02-07T13:21:44.534Z,0
2024-02-07T13:26:46.024Z,0
2024-02-07T13:31:47.641Z,0
2024-02-07T13:36:49.327Z,0
2024-02-07T13:41:50.902Z,0
2024-02-07T13:46:52.800Z,0
2024-02-07T13:51:54.390Z,0
2024-02-07T13:56:55.864Z,0
2024-02-07T14:01:57.748Z,0
2024-02-07T14:06:59.239Z,0
2024-02-07T14:12:00.955Z,0
2024-02-07T14:17:02.615Z,0
2024-02-07T14:22:04.807Z,0
2024-02-07T14:27:06.453Z,0
2024-02-07T14:32:07.943Z,0
2024-02-07T14:37:09.355Z,0
2024-02-07T14:42:11.052Z,0
2024-02-07T14:47:12.558Z,0
2024-02-07T14:52:16.364Z,0
2024-02-07T14:57:18.529Z,1.16185
2024-02-07T15:02:20.476Z,0.4148
2024-02-07T15:07:22.264Z,1.3463
2024-02-07T15:12:23.943Z,2.50815
2024-02-07T15:17:25.506Z,2.6926
2024-02-07T15:22:27.198Z,5.0163
2024-02-07T15:27:28.866Z,6.54705
2024-02-07T15:32:30.348Z,4.91835
2024-02-07T15:37:32.029Z,7.04525
2024-02-07T15:42:33.758Z,9.9223
2024-02-07T15:47:35.376Z,15.9402
2024-02-07T15:52:37.391Z,22.22145
2024-02-07T15:57:39.206Z,33.24325
2024-02-07T16:02:41.191Z,33.4803
2024-02-07T16:07:42.968Z,27.61385
2024-02-07T16:12:44.677Z,21.74745
2024-02-07T16:17:46.170Z,21.9287
2024-02-07T16:22:47.812Z,21.74425
2024-02-07T16:27:49.405Z,26.15205
2024-02-07T16:32:50.928Z,26.0969
2024-02-07T16:37:52.423Z,27.4432
2024-02-07T16:42:54.371Z,29.398
2024-02-07T16:47:56.118Z,30.68915
2024-02-07T16:52:57.944Z,34.72805
2024-02-07T16:57:59.663Z,39.191
2024-02-07T17:03:01.241Z,36.57255
2024-02-07T17:08:03.081Z,34.7248
2024-02-07T17:13:05.095Z,45.01925
2024-02-07T17:18:07.189Z,44.90895
2024-02-07T17:23:09.322Z,45.8652
2024-02-07T17:28:10.908Z,48.70955
2024-02-07T17:33:12.753Z,53.0946
2024-02-07T17:38:14.564Z,54.0427
2024-02-07T17:43:16.119Z,69.21255
2024-02-07T17:48:17.905Z,60.79805
2024-02-07T17:53:19.842Z,67.61265
2024-02-07T17:58:21.710Z,82.427
2024-02-07T18:03:23.516Z,91.0349
2024-02-07T18:08:25.414Z,103.33605
2024-02-07T18:13:26.965Z,112.90845
2024-02-07T18:18:28.854Z,144.26125
2024-02-07T18:23:30.568Z,122.09295
2024-02-07T18:28:32.349Z,129.45195
2024-02-07T18:33:34.181Z,144.2324
2024-02-07T18:38:35.853Z,158.11215
2024-02-07T18:43:37.367Z,181.313
2024-02-07T18:48:39.429Z,238.81785
2024-02-07T18:53:41.010Z,288.4085
2024-02-07T18:58:42.685Z,433.53315
2024-02-07T19:03:44.546Z,656.53975
2024-02-07T19:08:46.237Z,608.0864
2024-02-07T19:13:47.885Z,524.80025
2024-02-07T19:18:49.899Z,525.99825
2024-02-07T19:23:51.953Z,518.27035
2024-02-07T19:28:54.232Z,546.4152
2024-02-07T19:33:55.973Z,697.5164
2024-02-07T19:38:57.678Z,785.34335
2024-02-07T19:43:59.918Z,1221.463
2024-02-07T19:49:01.690Z,1527.7196
2024-02-07T19:54:03.231Z,1429.2001
2024-02-07T19:59:04.997Z,917.67655
2024-02-07T20:04:06.998Z,876.9775
2024-02-07T20:09:08.616Z,1088.7609
2024-02-07T20:14:10.296Z,1053.1676
2024-02-07T20:19:12.317Z,941.2991
2024-02-07T20:24:14.120Z,624.57475
2024-02-07T20:29:15.875Z,560.4677
2024-02-07T20:34:17.407Z,541.30575
2024-02-07T20:39:19.282Z,479.5034
2024-02-07T20:44:20.952Z,610.62835
2024-02-07T20:49:22.814Z,588.90125
2024-02-07T20:54:24.598Z,575.1245
2024-02-07T20:59:26.552Z,543.34765
2024-02-07T21:04:28.439Z,501.16375
2024-02-07T21:09:30.318Z,489.30935
2024-02-07T21:14:31.889Z,449.15625
2024-02-07T21:19:33.663Z,426.93095
2024-02-07T21:24:35.507Z,443.64545
2024-02-07T21:29:37.162Z,433.83345
2024-02-07T21:34:38.740Z,432.5803
2024-02-07T21:39:40.466Z,445.32635
2024-02-07T21:44:42.165Z,426.4573
2024-02-07T21:49:43.915Z,334.07055
2024-02-07T21:54:45.567Z,281.52685
2024-02-07T21:59:47.191Z,279.148
2024-02-07T22:04:48.963Z,259.9119
2024-02-07T22:09:50.633Z,250.8947
2024-02-07T22:14:52.355Z,235.0167
2024-02-07T22:19:54.024Z,307.6047
2024-02-07T22:24:56.153Z,294.80525
2024-02-07T22:29:57.676Z,222.34665
2024-02-07T22:34:59.299Z,212.16575
2024-02-07T22:40:00.802Z,200.2525
2024-02-07T22:45:02.441Z,201.4695
2024-02-07T22:50:04.079Z,203.22085
2024-02-07T22:55:05.613Z,196.1566
2024-02-07T23:00:07.128Z,182.454
2024-02-07T23:05:08.661Z,164.2333
2024-02-07T23:10:10.166Z,149.93935
2024-02-07T23:15:11.648Z,146.3245
2024-02-07T23:20:13.632Z,130.6671
2024-02-07T23:25:15.194Z,135.00075
2024-02-07T23:30:16.623Z,131.7738
2024-02-07T23:35:18.486Z,118.3298
2024-02-07T23:40:19.920Z,103.1326
2024-02-07T23:45:21.422Z,90.9779
2024-02-07T23:50:22.961Z,88.23015
2024-02-07T23:55:24.454Z,76.7961
